sensor_id;sensor_type;location;lat;lon;timestamp;P1;durP1;ratioP1;P2;durP2;ratioP2
79480;SDS011;68944;48.262;14.208;2023-04-24T00:02:07;5.07;;;1.52;;
79480;SDS011;68944;48.262;14.208;2023-04-24T00:04:36;4.50;;;1.60;;
79480;SDS011;68944;48.262;14.208;2023-04-24T00:07:05;5.00;;;1.58;;
79480;SDS011;68944;48.262;14.208;2023-04-24T00:09:32;5.00;;;1.50;;
79480;SDS011;68944;48.262;14.208;2023-04-24T00:11:58;5.15;;;1.73;;
79480;SDS011;68944;48.262;14.208;2023-04-24T00:14:24;5.03;;;1.70;;
79480;SDS011;68944;48.262;14.208;2023-04-24T00:16:49;5.85;;;1.98;;
79480;SDS011;68944;48.262;14.208;2023-04-24T00:19:15;5.85;;;1.60;;
79480;SDS011;68944;48.262;14.208;2023-04-24T00:21:41;5.07;;;1.70;;
79480;SDS011;68944;48.262;14.208;2023-04-24T00:24:07;7.63;;;1.83;;
79480;SDS011;68944;48.262;14.208;2023-04-24T00:26:34;5.35;;;1.90;;
79480;SDS011;68944;48.262;14.208;2023-04-24T00:29:00;5.47;;;1.75;;
79480;SDS011;68944;48.262;14.208;2023-04-24T00:31:26;5.05;;;2.00;;
79480;SDS011;68944;48.262;14.208;2023-04-24T00:33:51;4.60;;;1.70;;
79480;SDS011;68944;48.262;14.208;2023-04-24T00:36:17;6.32;;;2.00;;
79480;SDS011;68944;48.262;14.208;2023-04-24T00:38:44;6.60;;;1.77;;
79480;SDS011;68944;48.262;14.208;2023-04-24T00:41:10;5.47;;;1.80;;
79480;SDS011;68944;48.262;14.208;2023-04-24T00:43:36;4.80;;;1.73;;
79480;SDS011;68944;48.262;14.208;2023-04-24T00:46:01;5.88;;;2.15;;
79480;SDS011;68944;48.262;14.208;2023-04-24T00:48:27;4.97;;;1.88;;
79480;SDS011;68944;48.262;14.208;2023-04-24T00:50:53;6.53;;;1.73;;
79480;SDS011;68944;48.262;14.208;2023-04-24T00:53:19;5.30;;;1.92;;
79480;SDS011;68944;48.262;14.208;2023-04-24T00:55:45;6.78;;;1.70;;
79480;SDS011;68944;48.262;14.208;2023-04-24T00:58:12;6.22;;;1.80;;
79480;SDS011;68944;48.262;14.208;2023-04-24T01:00:38;3.95;;;1.65;;
79480;SDS011;68944;48.262;14.208;2023-04-24T01:03:04;4.70;;;1.83;;
79480;SDS011;68944;48.262;14.208;2023-04-24T01:05:32;4.95;;;1.90;;
79480;SDS011;68944;48.262;14.208;2023-04-24T01:07:58;6.50;;;1.80;;
79480;SDS011;68944;48.262;14.208;2023-04-24T01:10:24;4.90;;;1.90;;
79480;SDS011;68944;48.262;14.208;2023-04-24T01:12:52;6.72;;;2.20;;
79480;SDS011;68944;48.262;14.208;2023-04-24T01:15:18;5.75;;;1.90;;
79480;SDS011;68944;48.262;14.208;2023-04-24T01:17:45;5.47;;;1.90;;
79480;SDS011;68944;48.262;14.208;2023-04-24T01:20:13;6.35;;;1.80;;
79480;SDS011;68944;48.262;14.208;2023-04-24T01:22:40;5.00;;;1.58;;
79480;SDS011;68944;48.262;14.208;2023-04-24T01:25:06;5.63;;;1.80;;
79480;SDS011;68944;48.262;14.208;2023-04-24T01:27:32;6.30;;;1.90;;
79480;SDS011;68944;48.262;14.208;2023-04-24T01:29:57;4.15;;;1.33;;
79480;SDS011;68944;48.262;14.208;2023-04-24T01:32:23;6.35;;;1.73;;
79480;SDS011;68944;48.262;14.208;2023-04-24T01:34:50;5.15;;;1.65;;
79480;SDS011;68944;48.262;14.208;2023-04-24T01:37:15;5.55;;;1.70;;
79480;SDS011;68944;48.262;14.208;2023-04-24T01:39:42;5.13;;;1.60;;
79480;SDS011;68944;48.262;14.208;2023-04-24T01:42:08;4.18;;;1.50;;
79480;SDS011;68944;48.262;14.208;2023-04-24T01:44:34;6.05;;;1.50;;
79480;SDS011;68944;48.262;14.208;2023-04-24T01:47:02;5.20;;;1.73;;
79480;SDS011;68944;48.262;14.208;2023-04-24T01:49:29;4.57;;;1.50;;
79480;SDS011;68944;48.262;14.208;2023-04-24T01:51:54;5.10;;;1.50;;
79480;SDS011;68944;48.262;14.208;2023-04-24T01:54:20;4.55;;;1.60;;
79480;SDS011;68944;48.262;14.208;2023-04-24T01:56:45;4.10;;;1.50;;
79480;SDS011;68944;48.262;14.208;2023-04-24T01:59:11;5.07;;;1.50;;
79480;SDS011;68944;48.262;14.208;2023-04-24T02:01:38;4.68;;;1.50;;
79480;SDS011;68944;48.262;14.208;2023-04-24T02:04:04;4.50;;;1.50;;
79480;SDS011;68944;48.262;14.208;2023-04-24T02:06:31;4.68;;;1.42;;
79480;SDS011;68944;48.262;14.208;2023-04-24T02:08:59;4.18;;;1.42;;
79480;SDS011;68944;48.262;14.208;2023-04-24T02:11:25;5.10;;;1.67;;
79480;SDS011;68944;48.262;14.208;2023-04-24T02:13:51;4.57;;;1.48;;
79480;SDS011;68944;48.262;14.208;2023-04-24T02:16:17;5.70;;;1.75;;
79480;SDS011;68944;48.262;14.208;2023-04-24T02:18:43;4.82;;;1.50;;
79480;SDS011;68944;48.262;14.208;2023-04-24T02:21:09;4.20;;;1.40;;
79480;SDS011;68944;48.262;14.208;2023-04-24T02:23:35;5.75;;;1.63;;
79480;SDS011;68944;48.262;14.208;2023-04-24T02:26:00;8.32;;;1.50;;
79480;SDS011;68944;48.262;14.208;2023-04-24T02:28:26;5.35;;;1.52;;
79480;SDS011;68944;48.262;14.208;2023-04-24T02:30:51;4.55;;;1.65;;
79480;SDS011;68944;48.262;14.208;2023-04-24T02:33:19;4.57;;;1.67;;
79480;SDS011;68944;48.262;14.208;2023-04-24T02:35:45;6.55;;;1.75;;
79480;SDS011;68944;48.262;14.208;2023-04-24T02:38:11;5.18;;;1.73;;
79480;SDS011;68944;48.262;14.208;2023-04-24T02:40:36;4.57;;;1.67;;
79480;SDS011;68944;48.262;14.208;2023-04-24T02:43:01;5.53;;;1.80;;
79480;SDS011;68944;48.262;14.208;2023-04-24T02:45:27;4.60;;;1.60;;
79480;SDS011;68944;48.262;14.208;2023-04-24T02:47:53;5.10;;;1.73;;
79480;SDS011;68944;48.262;14.208;2023-04-24T02:50:18;6.20;;;1.70;;
79480;SDS011;68944;48.262;14.208;2023-04-24T02:52:44;4.68;;;1.60;;
79480;SDS011;68944;48.262;14.208;2023-04-24T02:55:10;6.07;;;1.90;;
79480;SDS011;68944;48.262;14.208;2023-04-24T02:57:35;6.25;;;2.00;;
79480;SDS011;68944;48.262;14.208;2023-04-24T03:00:01;6.93;;;1.67;;
79480;SDS011;68944;48.262;14.208;2023-04-24T03:02:27;6.28;;;2.00;;
79480;SDS011;68944;48.262;14.208;2023-04-24T03:04:52;5.32;;;1.90;;
79480;SDS011;68944;48.262;14.208;2023-04-24T03:07:19;6.85;;;2.17;;
79480;SDS011;68944;48.262;14.208;2023-04-24T03:09:46;6.32;;;2.08;;
79480;SDS011;68944;48.262;14.208;2023-04-24T03:12:14;6.75;;;2.15;;
79480;SDS011;68944;48.262;14.208;2023-04-24T03:14:39;6.18;;;2.30;;
79480;SDS011;68944;48.262;14.208;2023-04-24T03:17:05;6.43;;;2.47;;
79480;SDS011;68944;48.262;14.208;2023-04-24T03:19:30;5.20;;;2.00;;
79480;SDS011;68944;48.262;14.208;2023-04-24T03:22:02;5.38;;;1.90;;
79480;SDS011;68944;48.262;14.208;2023-04-24T03:24:29;7.18;;;2.10;;
79480;SDS011;68944;48.262;14.208;2023-04-24T03:26:56;6.88;;;2.20;;
79480;SDS011;68944;48.262;14.208;2023-04-24T03:29:41;6.10;;;2.50;;
79480;SDS011;68944;48.262;14.208;2023-04-24T03:32:07;7.25;;;2.60;;
79480;SDS011;68944;48.262;14.208;2023-04-24T03:34:34;7.13;;;3.03;;
79480;SDS011;68944;48.262;14.208;2023-04-24T03:37:00;7.38;;;2.80;;
79480;SDS011;68944;48.262;14.208;2023-04-24T03:39:26;6.38;;;3.00;;
79480;SDS011;68944;48.262;14.208;2023-04-24T03:41:54;6.28;;;2.80;;
79480;SDS011;68944;48.262;14.208;2023-04-24T03:44:25;5.95;;;2.60;;
79480;SDS011;68944;48.262;14.208;2023-04-24T03:46:50;6.03;;;2.67;;
79480;SDS011;68944;48.262;14.208;2023-04-24T03:49:18;6.07;;;2.78;;
79480;SDS011;68944;48.262;14.208;2023-04-24T03:51:46;7.50;;;2.72;;
79480;SDS011;68944;48.262;14.208;2023-04-24T03:54:29;7.13;;;2.65;;
79480;SDS011;68944;48.262;14.208;2023-04-24T03:56:55;6.68;;;2.42;;
79480;SDS011;68944;48.262;14.208;2023-04-24T03:59:22;6.05;;;2.50;;
79480;SDS011;68944;48.262;14.208;2023-04-24T04:01:59;7.38;;;2.70;;
79480;SDS011;68944;48.262;14.208;2023-04-24T04:04:24;6.63;;;2.30;;
79480;SDS011;68944;48.262;14.208;2023-04-24T04:06:50;5.97;;;2.15;;
79480;SDS011;68944;48.262;14.208;2023-04-24T04:09:16;5.95;;;2.85;;
79480;SDS011;68944;48.262;14.208;2023-04-24T04:11:41;7.20;;;3.05;;
79480;SDS011;68944;48.262;14.208;2023-04-24T04:14:07;6.78;;;2.83;;
79480;SDS011;68944;48.262;14.208;2023-04-24T04:16:34;6.15;;;2.47;;
79480;SDS011;68944;48.262;14.208;2023-04-24T04:19:02;5.35;;;2.10;;
79480;SDS011;68944;48.262;14.208;2023-04-24T04:21:28;4.85;;;1.77;;
79480;SDS011;68944;48.262;14.208;2023-04-24T04:24:03;5.05;;;1.83;;
79480;SDS011;68944;48.262;14.208;2023-04-24T04:26:35;4.68;;;1.58;;
79480;SDS011;68944;48.262;14.208;2023-04-24T04:29:07;5.43;;;1.60;;
79480;SDS011;68944;48.262;14.208;2023-04-24T04:31:37;5.93;;;1.83;;
79480;SDS011;68944;48.262;14.208;2023-04-24T04:34:07;4.88;;;1.58;;
79480;SDS011;68944;48.262;14.208;2023-04-24T04:36:33;5.00;;;1.50;;
79480;SDS011;68944;48.262;14.208;2023-04-24T04:39:11;5.90;;;1.50;;
79480;SDS011;68944;48.262;14.208;2023-04-24T04:41:49;7.53;;;1.60;;
79480;SDS011;68944;48.262;14.208;2023-04-24T04:44:17;3.65;;;1.13;;
79480;SDS011;68944;48.262;14.208;2023-04-24T04:46:43;4.60;;;1.30;;
79480;SDS011;68944;48.262;14.208;2023-04-24T04:49:20;5.78;;;1.48;;
79480;SDS011;68944;48.262;14.208;2023-04-24T04:51:47;4.05;;;1.33;;
79480;SDS011;68944;48.262;14.208;2023-04-24T04:54:12;5.07;;;1.40;;
79480;SDS011;68944;48.262;14.208;2023-04-24T04:56:38;5.65;;;1.33;;
79480;SDS011;68944;48.262;14.208;2023-04-24T04:59:03;4.45;;;1.40;;
79480;SDS011;68944;48.262;14.208;2023-04-24T05:01:29;4.03;;;1.30;;
79480;SDS011;68944;48.262;14.208;2023-04-24T05:03:55;4.47;;;1.65;;
79480;SDS011;68944;48.262;14.208;2023-04-24T05:06:21;4.82;;;1.50;;
79480;SDS011;68944;48.262;14.208;2023-04-24T05:08:46;6.15;;;1.40;;
79480;SDS011;68944;48.262;14.208;2023-04-24T05:11:35;5.35;;;1.50;;
79480;SDS011;68944;48.262;14.208;2023-04-24T05:14:01;4.20;;;1.38;;
79480;SDS011;68944;48.262;14.208;2023-04-24T05:16:33;4.88;;;1.38;;
79480;SDS011;68944;48.262;14.208;2023-04-24T05:19:00;6.60;;;1.70;;
79480;SDS011;68944;48.262;14.208;2023-04-24T05:21:30;4.07;;;1.23;;
79480;SDS011;68944;48.262;14.208;2023-04-24T05:23:56;4.60;;;1.20;;
79480;SDS011;68944;48.262;14.208;2023-04-24T05:26:42;4.00;;;1.17;;
79480;SDS011;68944;48.262;14.208;2023-04-24T05:29:08;4.65;;;1.50;;
79480;SDS011;68944;48.262;14.208;2023-04-24T05:31:34;3.53;;;1.30;;
79480;SDS011;68944;48.262;14.208;2023-04-24T05:33:59;4.13;;;1.33;;
79480;SDS011;68944;48.262;14.208;2023-04-24T05:36:25;4.18;;;1.15;;
79480;SDS011;68944;48.262;14.208;2023-04-24T05:38:52;3.30;;;1.10;;
79480;SDS011;68944;48.262;14.208;2023-04-24T05:41:17;2.75;;;1.05;;
79480;SDS011;68944;48.262;14.208;2023-04-24T05:43:43;4.75;;;1.10;;
79480;SDS011;68944;48.262;14.208;2023-04-24T05:46:08;3.10;;;1.17;;
79480;SDS011;68944;48.262;14.208;2023-04-24T05:48:34;3.75;;;1.17;;
79480;SDS011;68944;48.262;14.208;2023-04-24T05:51:02;2.05;;;0.95;;
79480;SDS011;68944;48.262;14.208;2023-04-24T05:53:27;3.67;;;1.00;;
79480;SDS011;68944;48.262;14.208;2023-04-24T05:55:53;2.50;;;0.98;;
79480;SDS011;68944;48.262;14.208;2023-04-24T05:58:19;7.60;;;1.45;;
79480;SDS011;68944;48.262;14.208;2023-04-24T06:00:46;5.22;;;1.17;;
79480;SDS011;68944;48.262;14.208;2023-04-24T06:03:12;5.40;;;1.20;;
79480;SDS011;68944;48.262;14.208;2023-04-24T06:05:37;4.50;;;1.02;;
79480;SDS011;68944;48.262;14.208;2023-04-24T06:08:03;3.25;;;1.10;;
79480;SDS011;68944;48.262;14.208;2023-04-24T06:10:35;2.63;;;1.08;;
79480;SDS011;68944;48.262;14.208;2023-04-24T06:13:01;5.53;;;1.20;;
79480;SDS011;68944;48.262;14.208;2023-04-24T06:15:30;4.63;;;0.98;;
79480;SDS011;68944;48.262;14.208;2023-04-24T06:17:59;3.47;;;1.02;;
79480;SDS011;68944;48.262;14.208;2023-04-24T06:20:25;3.35;;;1.13;;
79480;SDS011;68944;48.262;14.208;2023-04-24T06:22:51;3.08;;;1.08;;
79480;SDS011;68944;48.262;14.208;2023-04-24T06:25:19;4.68;;;1.10;;
79480;SDS011;68944;48.262;14.208;2023-04-24T06:27:45;2.55;;;0.88;;
79480;SDS011;68944;48.262;14.208;2023-04-24T06:30:11;2.28;;;0.90;;
79480;SDS011;68944;48.262;14.208;2023-04-24T06:32:37;3.53;;;0.98;;
79480;SDS011;68944;48.262;14.208;2023-04-24T06:35:03;4.03;;;1.10;;
79480;SDS011;68944;48.262;14.208;2023-04-24T06:37:29;2.70;;;0.88;;
79480;SDS011;68944;48.262;14.208;2023-04-24T06:39:54;3.40;;;1.10;;
79480;SDS011;68944;48.262;14.208;2023-04-24T06:42:20;3.78;;;0.98;;
79480;SDS011;68944;48.262;14.208;2023-04-24T06:44:48;2.65;;;0.90;;
79480;SDS011;68944;48.262;14.208;2023-04-24T06:47:14;1.77;;;0.80;;
79480;SDS011;68944;48.262;14.208;2023-04-24T06:49:39;1.90;;;0.77;;
79480;SDS011;68944;48.262;14.208;2023-04-24T06:52:05;2.55;;;1.00;;
79480;SDS011;68944;48.262;14.208;2023-04-24T06:54:31;3.40;;;1.00;;
79480;SDS011;68944;48.262;14.208;2023-04-24T06:56:57;2.22;;;0.90;;
79480;SDS011;68944;48.262;14.208;2023-04-24T06:59:24;4.40;;;1.27;;
79480;SDS011;68944;48.262;14.208;2023-04-24T07:01:50;2.75;;;1.17;;
79480;SDS011;68944;48.262;14.208;2023-04-24T07:04:18;3.92;;;1.00;;
79480;SDS011;68944;48.262;14.208;2023-04-24T07:06:47;2.80;;;1.00;;
79480;SDS011;68944;48.262;14.208;2023-04-24T07:09:14;5.35;;;1.05;;
79480;SDS011;68944;48.262;14.208;2023-04-24T07:11:41;3.08;;;1.00;;
79480;SDS011;68944;48.262;14.208;2023-04-24T07:14:07;2.63;;;0.98;;
79480;SDS011;68944;48.262;14.208;2023-04-24T07:16:32;4.15;;;1.00;;
79480;SDS011;68944;48.262;14.208;2023-04-24T07:18:58;6.28;;;1.17;;
79480;SDS011;68944;48.262;14.208;2023-04-24T07:21:24;3.58;;;1.10;;
79480;SDS011;68944;48.262;14.208;2023-04-24T07:23:50;3.30;;;1.00;;
79480;SDS011;68944;48.262;14.208;2023-04-24T07:26:16;5.03;;;1.13;;
79480;SDS011;68944;48.262;14.208;2023-04-24T07:28:42;4.30;;;1.10;;
79480;SDS011;68944;48.262;14.208;2023-04-24T07:31:07;3.20;;;1.10;;
79480;SDS011;68944;48.262;14.208;2023-04-24T07:33:33;2.80;;;1.10;;
79480;SDS011;68944;48.262;14.208;2023-04-24T07:35:59;5.47;;;1.33;;
79480;SDS011;68944;48.262;14.208;2023-04-24T07:38:25;2.63;;;1.00;;
79480;SDS011;68944;48.262;14.208;2023-04-24T07:40:51;5.18;;;1.60;;
79480;SDS011;68944;48.262;14.208;2023-04-24T07:43:17;3.80;;;1.35;;
79480;SDS011;68944;48.262;14.208;2023-04-24T07:45:45;3.90;;;1.20;;
79480;SDS011;68944;48.262;14.208;2023-04-24T07:48:11;5.15;;;1.45;;
79480;SDS011;68944;48.262;14.208;2023-04-24T07:50:40;5.38;;;1.40;;
79480;SDS011;68944;48.262;14.208;2023-04-24T07:53:05;5.03;;;1.20;;
79480;SDS011;68944;48.262;14.208;2023-04-24T07:55:31;5.10;;;1.15;;
79480;SDS011;68944;48.262;14.208;2023-04-24T07:57:56;4.97;;;1.30;;
79480;SDS011;68944;48.262;14.208;2023-04-24T08:00:22;3.75;;;1.05;;
79480;SDS011;68944;48.262;14.208;2023-04-24T08:02:47;3.90;;;1.35;;
79480;SDS011;68944;48.262;14.208;2023-04-24T08:05:13;4.85;;;1.20;;
79480;SDS011;68944;48.262;14.208;2023-04-24T08:07:38;3.95;;;1.30;;
79480;SDS011;68944;48.262;14.208;2023-04-24T08:10:04;3.45;;;1.10;;
79480;SDS011;68944;48.262;14.208;2023-04-24T08:12:30;3.20;;;1.10;;
79480;SDS011;68944;48.262;14.208;2023-04-24T08:14:56;4.40;;;1.20;;
79480;SDS011;68944;48.262;14.208;2023-04-24T08:17:22;3.70;;;1.30;;
79480;SDS011;68944;48.262;14.208;2023-04-24T08:19:47;3.67;;;1.13;;
79480;SDS011;68944;48.262;14.208;2023-04-24T08:22:14;4.35;;;1.30;;
79480;SDS011;68944;48.262;14.208;2023-04-24T08:24:40;3.25;;;1.20;;
79480;SDS011;68944;48.262;14.208;2023-04-24T08:27:05;5.10;;;1.42;;
79480;SDS011;68944;48.262;14.208;2023-04-24T08:29:31;4.20;;;1.30;;
79480;SDS011;68944;48.262;14.208;2023-04-24T08:31:57;5.35;;;1.15;;
79480;SDS011;68944;48.262;14.208;2023-04-24T08:34:22;4.80;;;1.33;;
79480;SDS011;68944;48.262;14.208;2023-04-24T08:36:48;3.75;;;1.30;;
79480;SDS011;68944;48.262;14.208;2023-04-24T08:39:14;3.78;;;1.20;;
79480;SDS011;68944;48.262;14.208;2023-04-24T08:41:43;4.40;;;1.42;;
79480;SDS011;68944;48.262;14.208;2023-04-24T08:44:10;3.75;;;1.30;;
79480;SDS011;68944;48.262;14.208;2023-04-24T08:46:36;3.65;;;1.20;;
79480;SDS011;68944;48.262;14.208;2023-04-24T08:49:02;4.82;;;1.08;;
79480;SDS011;68944;48.262;14.208;2023-04-24T08:51:29;4.50;;;1.20;;
79480;SDS011;68944;48.262;14.208;2023-04-24T08:53:55;3.45;;;1.10;;
79480;SDS011;68944;48.262;14.208;2023-04-24T08:56:22;3.63;;;1.10;;
79480;SDS011;68944;48.262;14.208;2023-04-24T08:58:50;5.30;;;1.23;;
79480;SDS011;68944;48.262;14.208;2023-04-24T09:01:16;6.70;;;1.50;;
79480;SDS011;68944;48.262;14.208;2023-04-24T09:03:44;4.03;;;1.20;;
79480;SDS011;68944;48.262;14.208;2023-04-24T09:06:11;4.40;;;1.23;;
79480;SDS011;68944;48.262;14.208;2023-04-24T09:08:37;4.72;;;1.00;;
79480;SDS011;68944;48.262;14.208;2023-04-24T09:11:07;5.50;;;1.83;;
79480;SDS011;68944;48.262;14.208;2023-04-24T09:13:34;4.07;;;1.10;;
79480;SDS011;68944;48.262;14.208;2023-04-24T09:15:59;5.07;;;1.20;;
79480;SDS011;68944;48.262;14.208;2023-04-24T09:18:25;4.45;;;1.15;;
79480;SDS011;68944;48.262;14.208;2023-04-24T09:23:29;4.82;;;1.30;;
79480;SDS011;68944;48.262;14.208;2023-04-24T09:25:55;2.92;;;1.00;;
79480;SDS011;68944;48.262;14.208;2023-04-24T09:28:26;6.85;;;1.40;;
79480;SDS011;68944;48.262;14.208;2023-04-24T09:31:12;3.22;;;1.02;;
79480;SDS011;68944;48.262;14.208;2023-04-24T09:33:57;5.40;;;1.05;;
79480;SDS011;68944;48.262;14.208;2023-04-24T09:36:31;4.47;;;1.20;;
79480;SDS011;68944;48.262;14.208;2023-04-24T09:39:01;4.35;;;0.82;;
79480;SDS011;68944;48.262;14.208;2023-04-24T09:41:29;5.80;;;1.27;;
79480;SDS011;68944;48.262;14.208;2023-04-24T09:43:55;2.13;;;0.90;;
79480;SDS011;68944;48.262;14.208;2023-04-24T09:46:28;3.20;;;1.10;;
79480;SDS011;68944;48.262;14.208;2023-04-24T09:48:55;3.42;;;1.00;;
79480;SDS011;68944;48.262;14.208;2023-04-24T09:51:32;2.65;;;0.90;;
79480;SDS011;68944;48.262;14.208;2023-04-24T09:54:00;2.08;;;0.80;;
79480;SDS011;68944;48.262;14.208;2023-04-24T09:56:26;3.35;;;1.00;;
79480;SDS011;68944;48.262;14.208;2023-04-24T09:58:52;3.40;;;0.85;;
79480;SDS011;68944;48.262;14.208;2023-04-24T10:01:29;3.15;;;0.90;;
79480;SDS011;68944;48.262;14.208;2023-04-24T10:03:57;3.85;;;1.08;;
79480;SDS011;68944;48.262;14.208;2023-04-24T10:06:29;4.50;;;1.00;;
79480;SDS011;68944;48.262;14.208;2023-04-24T10:08:56;2.88;;;0.98;;
79480;SDS011;68944;48.262;14.208;2023-04-24T10:11:23;3.47;;;1.05;;
79480;SDS011;68944;48.262;14.208;2023-04-24T10:13:52;3.35;;;0.93;;
79480;SDS011;68944;48.262;14.208;2023-04-24T10:16:17;2.88;;;0.95;;
79480;SDS011;68944;48.262;14.208;2023-04-24T10:18:45;3.03;;;0.93;;
79480;SDS011;68944;48.262;14.208;2023-04-24T10:21:13;4.95;;;0.90;;
79480;SDS011;68944;48.262;14.208;2023-04-24T10:23:39;1.75;;;0.75;;
79480;SDS011;68944;48.262;14.208;2023-04-24T10:26:06;4.00;;;0.90;;
79480;SDS011;68944;48.262;14.208;2023-04-24T10:28:33;1.73;;;0.70;;
79480;SDS011;68944;48.262;14.208;2023-04-24T10:31:01;5.20;;;0.93;;
79480;SDS011;68944;48.262;14.208;2023-04-24T10:33:28;1.38;;;0.65;;
79480;SDS011;68944;48.262;14.208;2023-04-24T10:35:55;2.42;;;0.75;;
79480;SDS011;68944;48.262;14.208;2023-04-24T10:38:24;3.85;;;0.90;;
79480;SDS011;68944;48.262;14.208;2023-04-24T10:40:56;4.30;;;1.00;;
79480;SDS011;68944;48.262;14.208;2023-04-24T10:43:45;2.28;;;0.77;;
79480;SDS011;68944;48.262;14.208;2023-04-24T10:46:11;1.63;;;0.80;;
79480;SDS011;68944;48.262;14.208;2023-04-24T10:48:51;1.58;;;0.80;;
79480;SDS011;68944;48.262;14.208;2023-04-24T10:51:21;3.30;;;0.98;;
79480;SDS011;68944;48.262;14.208;2023-04-24T10:53:49;4.47;;;1.00;;
79480;SDS011;68944;48.262;14.208;2023-04-24T10:56:15;3.65;;;1.02;;
79480;SDS011;68944;48.262;14.208;2023-04-24T11:01:44;6.80;;;1.00;;
79480;SDS011;68944;48.262;14.208;2023-04-24T11:04:03;4.47;;;1.05;;
79480;SDS011;68944;48.262;14.208;2023-04-24T11:06:35;4.55;;;1.20;;
79480;SDS011;68944;48.262;14.208;2023-04-24T11:09:08;2.47;;;0.98;;
79480;SDS011;68944;48.262;14.208;2023-04-24T11:11:37;2.28;;;0.80;;
79480;SDS011;68944;48.262;14.208;2023-04-24T11:14:09;2.28;;;0.90;;
79480;SDS011;68944;48.262;14.208;2023-04-24T11:24:25;4.07;;;1.10;;
79480;SDS011;68944;48.262;14.208;2023-04-24T11:26:58;3.67;;;1.10;;
79480;SDS011;68944;48.262;14.208;2023-04-24T11:29:48;4.07;;;0.98;;
79480;SDS011;68944;48.262;14.208;2023-04-24T11:32:24;2.78;;;1.00;;
79480;SDS011;68944;48.262;14.208;2023-04-24T11:34:56;4.63;;;0.95;;
79480;SDS011;68944;48.262;14.208;2023-04-24T11:37:24;3.30;;;1.25;;
79480;SDS011;68944;48.262;14.208;2023-04-24T11:39:52;2.58;;;0.90;;
79480;SDS011;68944;48.262;14.208;2023-04-24T11:42:19;3.78;;;1.00;;
79480;SDS011;68944;48.262;14.208;2023-04-24T11:44:46;3.08;;;0.90;;
79480;SDS011;68944;48.262;14.208;2023-04-24T11:47:12;7.57;;;1.20;;
79480;SDS011;68944;48.262;14.208;2023-04-24T11:49:38;4.03;;;1.20;;
79480;SDS011;68944;48.262;14.208;2023-04-24T11:52:04;5.20;;;2.45;;
79480;SDS011;68944;48.262;14.208;2023-04-24T11:54:30;2.92;;;0.95;;
79480;SDS011;68944;48.262;14.208;2023-04-24T11:56:56;3.33;;;1.20;;
79480;SDS011;68944;48.262;14.208;2023-04-24T11:59:22;5.47;;;1.40;;
79480;SDS011;68944;48.262;14.208;2023-04-24T12:01:48;5.22;;;1.40;;
79480;SDS011;68944;48.262;14.208;2023-04-24T12:04:15;4.88;;;0.95;;
79480;SDS011;68944;48.262;14.208;2023-04-24T12:07:03;5.43;;;1.10;;
79480;SDS011;68944;48.262;14.208;2023-04-24T12:09:28;3.03;;;1.13;;
79480;SDS011;68944;48.262;14.208;2023-04-24T12:11:55;4.05;;;1.27;;
79480;SDS011;68944;48.262;14.208;2023-04-24T12:14:22;2.92;;;0.82;;
79480;SDS011;68944;48.262;14.208;2023-04-24T12:16:51;4.78;;;0.93;;
79480;SDS011;68944;48.262;14.208;2023-04-24T12:19:23;4.13;;;1.02;;
79480;SDS011;68944;48.262;14.208;2023-04-24T12:25:02;7.97;;;1.10;;
79480;SDS011;68944;48.262;14.208;2023-04-24T12:27:33;3.60;;;0.80;;
79480;SDS011;68944;48.262;14.208;2023-04-24T12:29:59;4.47;;;0.90;;
79480;SDS011;68944;48.262;14.208;2023-04-24T12:32:26;3.78;;;1.20;;
79480;SDS011;68944;48.262;14.208;2023-04-24T12:34:52;4.18;;;1.27;;
79480;SDS011;68944;48.262;14.208;2023-04-24T12:37:18;4.68;;;1.30;;
79480;SDS011;68944;48.262;14.208;2023-04-24T12:39:59;3.45;;;1.00;;
79480;SDS011;68944;48.262;14.208;2023-04-24T12:42:26;3.78;;;1.13;;
79480;SDS011;68944;48.262;14.208;2023-04-24T12:44:55;4.88;;;1.15;;
79480;SDS011;68944;48.262;14.208;2023-04-24T12:47:23;4.28;;;1.50;;
79480;SDS011;68944;48.262;14.208;2023-04-24T12:49:49;1.73;;;0.73;;
79480;SDS011;68944;48.262;14.208;2023-04-24T12:52:17;2.97;;;0.73;;
79480;SDS011;68944;48.262;14.208;2023-04-24T12:54:50;2.28;;;0.90;;
79480;SDS011;68944;48.262;14.208;2023-04-24T12:57:16;3.65;;;1.27;;
79480;SDS011;68944;48.262;14.208;2023-04-24T12:59:42;1.65;;;0.70;;
79480;SDS011;68944;48.262;14.208;2023-04-24T13:02:08;1.55;;;0.60;;
79480;SDS011;68944;48.262;14.208;2023-04-24T13:04:35;1.58;;;0.82;;
79480;SDS011;68944;48.262;14.208;2023-04-24T13:07:01;3.17;;;0.90;;
79480;SDS011;68944;48.262;14.208;2023-04-24T13:09:27;3.15;;;0.82;;
79480;SDS011;68944;48.262;14.208;2023-04-24T13:11:52;1.52;;;0.80;;
79480;SDS011;68944;48.262;14.208;2023-04-24T13:14:18;2.28;;;0.93;;
79480;SDS011;68944;48.262;14.208;2023-04-24T13:16:43;3.95;;;1.10;;
79480;SDS011;68944;48.262;14.208;2023-04-24T13:19:09;4.93;;;1.40;;
79480;SDS011;68944;48.262;14.208;2023-04-24T13:21:34;4.38;;;1.50;;
79480;SDS011;68944;48.262;14.208;2023-04-24T13:24:00;3.92;;;1.17;;
79480;SDS011;68944;48.262;14.208;2023-04-24T13:26:25;3.22;;;1.00;;
79480;SDS011;68944;48.262;14.208;2023-04-24T13:28:51;3.05;;;1.13;;
79480;SDS011;68944;48.262;14.208;2023-04-24T13:31:16;4.05;;;1.30;;
79480;SDS011;68944;48.262;14.208;2023-04-24T13:33:42;3.58;;;1.10;;
79480;SDS011;68944;48.262;14.208;2023-04-24T13:36:07;4.47;;;1.10;;
79480;SDS011;68944;48.262;14.208;2023-04-24T13:38:33;3.30;;;1.10;;
79480;SDS011;68944;48.262;14.208;2023-04-24T13:40:59;2.85;;;1.20;;
79480;SDS011;68944;48.262;14.208;2023-04-24T13:43:25;4.65;;;1.30;;
79480;SDS011;68944;48.262;14.208;2023-04-24T13:45:51;2.42;;;1.10;;
79480;SDS011;68944;48.262;14.208;2023-04-24T13:48:16;5.47;;;1.30;;
79480;SDS011;68944;48.262;14.208;2023-04-24T13:50:43;5.00;;;1.50;;
79480;SDS011;68944;48.262;14.208;2023-04-24T13:53:09;3.22;;;1.13;;
79480;SDS011;68944;48.262;14.208;2023-04-24T13:55:34;3.95;;;1.20;;
79480;SDS011;68944;48.262;14.208;2023-04-24T13:58:01;4.78;;;1.35;;
79480;SDS011;68944;48.262;14.208;2023-04-24T14:00:27;4.15;;;1.30;;
79480;SDS011;68944;48.262;14.208;2023-04-24T14:02:52;5.45;;;1.30;;
79480;SDS011;68944;48.262;14.208;2023-04-24T14:05:18;5.50;;;1.52;;
79480;SDS011;68944;48.262;14.208;2023-04-24T14:07:44;4.75;;;1.40;;
79480;SDS011;68944;48.262;14.208;2023-04-24T14:10:09;4.47;;;1.50;;
79480;SDS011;68944;48.262;14.208;2023-04-24T14:12:35;6.13;;;1.48;;
79480;SDS011;68944;48.262;14.208;2023-04-24T14:15:01;4.97;;;1.70;;
79480;SDS011;68944;48.262;14.208;2023-04-24T14:17:27;5.97;;;1.73;;
79480;SDS011;68944;48.262;14.208;2023-04-24T14:19:52;5.03;;;1.63;;
79480;SDS011;68944;48.262;14.208;2023-04-24T14:22:21;4.28;;;1.50;;
79480;SDS011;68944;48.262;14.208;2023-04-24T14:24:46;4.38;;;1.40;;
79480;SDS011;68944;48.262;14.208;2023-04-24T14:27:12;5.40;;;1.80;;
79480;SDS011;68944;48.262;14.208;2023-04-24T14:29:37;5.47;;;1.85;;
79480;SDS011;68944;48.262;14.208;2023-04-24T14:32:03;3.95;;;1.48;;
79480;SDS011;68944;48.262;14.208;2023-04-24T14:34:28;4.45;;;1.40;;
79480;SDS011;68944;48.262;14.208;2023-04-24T14:36:54;5.03;;;1.30;;
79480;SDS011;68944;48.262;14.208;2023-04-24T14:39:19;4.55;;;1.40;;
79480;SDS011;68944;48.262;14.208;2023-04-24T14:41:45;4.80;;;1.50;;
79480;SDS011;68944;48.262;14.208;2023-04-24T14:44:11;5.88;;;1.60;;
79480;SDS011;68944;48.262;14.208;2023-04-24T14:46:36;4.70;;;1.45;;
79480;SDS011;68944;48.262;14.208;2023-04-24T14:49:02;5.00;;;1.70;;
79480;SDS011;68944;48.262;14.208;2023-04-24T14:51:27;9.35;;;2.05;;